createdAt,value
2018-06-09T00:00:11.899Z,94.60
2018-06-09T00:02:40.381Z,94.70
2018-06-09T00:05:10.967Z,94.60
2018-06-09T00:07:40.958Z,94.60
2018-06-09T00:10:10.676Z,94.70
2018-06-09T00:12:40.008Z,94.70
2018-06-09T00:15:08.494Z,94.90
2018-06-09T00:17:38.597Z,95.20
2018-06-09T00:20:08.231Z,95.20
2018-06-09T00:22:38.075Z,95.20
2018-06-09T00:25:07.184Z,95.20
2018-06-09T00:27:37.555Z,95.20
2018-06-09T00:30:06.280Z,95.20
2018-06-09T00:32:36.806Z,95.30
2018-06-09T00:35:11.425Z,95.40
2018-06-09T00:40:13.111Z,95.70
2018-06-09T00:42:42.220Z,95.70
2018-06-09T00:45:11.807Z,96.20
2018-06-09T00:47:40.605Z,96.20
2018-06-09T00:50:16.087Z,96.30
2018-06-09T00:52:45.941Z,96.30
2018-06-09T00:55:16.331Z,96.30
2018-06-09T00:57:46.459Z,96.30
2018-06-09T01:00:16.107Z,96.20
2018-06-09T01:02:51.001Z,96.10
2018-06-09T01:05:25.139Z,96.10
2018-06-09T01:07:59.848Z,96.20
2018-06-09T01:10:29.923Z,96.20
2018-06-09T01:12:59.634Z,96.20
2018-06-09T01:15:28.611Z,96.20
2018-06-09T01:18:01.114Z,96.40
2018-06-09T01:20:31.862Z,96.30
2018-06-09T01:23:02.654Z,96.30
2018-06-09T01:25:32.840Z,96.30
2018-06-09T01:28:03.082Z,96.20
2018-06-09T01:30:35.512Z,96.00
2018-06-09T01:33:05.053Z,96.00
2018-06-09T01:35:39.548Z,95.80
2018-06-09T01:38:09.588Z,95.80
2018-06-09T01:40:42.135Z,95.60
2018-06-09T01:43:12.284Z,95.40
2018-06-09T01:45:44.164Z,95.30
2018-06-09T01:48:14.947Z,95.20
2018-06-09T01:50:46.777Z,95.30
2018-06-09T01:53:19.588Z,95.50
2018-06-09T01:55:49.939Z,95.70
2018-06-09T01:58:22.208Z,95.80
2018-06-09T02:00:55.730Z,95.80
2018-06-09T02:03:29.076Z,95.70
2018-06-09T02:05:59.377Z,95.80
2018-06-09T02:08:29.605Z,95.70
2018-06-09T02:11:03.189Z,95.70
2018-06-09T02:13:33.213Z,95.80
2018-06-09T02:16:05.903Z,95.70
2018-06-09T02:18:35.859Z,95.60
2018-06-09T02:21:06.773Z,95.60
2018-06-09T02:23:37.280Z,95.60
2018-06-09T02:26:13.456Z,95.50
2018-06-09T02:28:43.131Z,95.50
2018-06-09T02:31:15.068Z,95.50
2018-06-09T02:33:45.908Z,95.50
2018-06-09T02:36:17.744Z,95.40
2018-06-09T02:38:47.799Z,95.40
2018-06-09T02:41:17.722Z,95.30
2018-06-09T02:43:49.884Z,95.40
2018-06-09T02:46:21.473Z,95.50
2018-06-09T02:48:52.214Z,95.50
2018-06-09T02:51:23.363Z,95.40
2018-06-09T02:53:56.363Z,95.50
2018-06-09T02:56:27.444Z,95.50
2018-06-09T02:58:58.830Z,95.40
2018-06-09T03:01:30.575Z,95.40
2018-06-09T03:04:00.153Z,95.30
2018-06-09T03:06:32.408Z,95.30
2018-06-09T03:09:02.959Z,95.40
2018-06-09T03:11:35.464Z,95.40
2018-06-09T03:14:06.121Z,95.60
2018-06-09T03:16:38.508Z,95.70
2018-06-09T03:19:12.960Z,95.60
2018-06-09T03:21:44.750Z,95.70
2018-06-09T03:24:17.476Z,95.60
2018-06-09T03:26:52.969Z,95.60
2018-06-09T03:29:22.616Z,95.70
2018-06-09T03:31:53.864Z,95.60
2018-06-09T03:34:23.886Z,95.70
2018-06-09T03:36:53.638Z,95.70
2018-06-09T03:39:26.607Z,95.60
2018-06-09T03:41:55.628Z,95.50
2018-06-09T03:44:30.920Z,95.60
2018-06-09T03:47:02.984Z,95.60
2018-06-09T03:49:36.844Z,95.50
2018-06-09T03:52:10.487Z,95.70
2018-06-09T03:54:41.839Z,95.60
2018-06-09T03:57:12.150Z,95.60
2018-06-09T03:59:43.855Z,95.60
2018-06-09T04:02:17.286Z,95.40
2018-06-09T04:04:45.914Z,95.40
2018-06-09T04:07:14.456Z,95.30
2018-06-09T04:09:43.054Z,95.10
2018-06-09T04:12:11.573Z,95.10
2018-06-09T04:14:40.032Z,94.70
2018-06-09T04:17:08.531Z,94.60
2018-06-09T04:19:37.052Z,94.50
2018-06-09T04:22:05.540Z,94.50
2018-06-09T04:24:34.008Z,94.40
2018-06-09T04:29:31.333Z,93.80
2018-06-09T04:31:59.838Z,93.80
2018-06-09T04:34:28.435Z,93.50
2018-06-09T04:36:56.943Z,93.40
2018-06-09T04:39:25.443Z,93.20
2018-06-09T04:41:53.916Z,93.20
2018-06-09T04:44:22.497Z,93.00
2018-06-09T04:46:51.038Z,92.70
2018-06-09T04:49:19.544Z,92.90
2018-06-09T04:51:48.095Z,92.50
2018-06-09T04:54:16.611Z,92.50
2018-06-09T04:56:45.142Z,92.10
2018-06-09T04:59:13.851Z,92.20
2018-06-09T05:01:42.399Z,91.80
2018-06-09T05:04:11.968Z,91.30
2018-06-09T05:06:40.480Z,91.30
2018-06-09T05:09:09.160Z,91.20
2018-06-09T05:11:37.692Z,91.00
2018-06-09T05:14:06.232Z,91.20
2018-06-09T05:16:34.780Z,91.10
2018-06-09T05:19:04.340Z,90.90
2018-06-09T05:21:33.822Z,90.80
2018-06-09T05:24:02.355Z,90.50
2018-06-09T05:26:30.851Z,90.50
2018-06-09T05:28:59.779Z,90.20
2018-06-09T05:31:28.276Z,89.60
2018-06-09T05:33:56.750Z,89.20
2018-06-09T05:36:25.291Z,88.40
2018-06-09T05:38:53.852Z,88.50
2018-06-09T05:41:22.386Z,88.80
2018-06-09T05:43:51.088Z,88.80
2018-06-09T05:51:27.537Z,87.40
2018-06-09T05:54:00.037Z,86.90
2018-06-09T05:56:30.877Z,85.80
2018-06-09T05:58:59.533Z,85.10
2018-06-09T06:01:29.024Z,84.70
2018-06-09T06:03:58.946Z,85.20
2018-06-09T06:06:27.464Z,85.10
2018-06-09T06:08:56.139Z,85.30
2018-06-09T06:11:24.722Z,85.60
2018-06-09T06:13:53.860Z,85.30
2018-06-09T06:16:22.624Z,84.90
2018-06-09T06:18:51.249Z,85.00
2018-06-09T06:21:19.774Z,84.60
2018-06-09T06:23:48.301Z,84.40
2018-06-09T06:26:16.906Z,84.20
2018-06-09T06:28:46.209Z,84.30
2018-06-09T06:31:15.075Z,84.10
2018-06-09T06:33:43.686Z,84.00
2018-06-09T06:36:13.172Z,83.40
2018-06-09T06:38:41.822Z,82.40
2018-06-09T06:41:14.289Z,82.70
2018-06-09T06:43:43.065Z,81.70
2018-06-09T06:46:12.142Z,82.30
2018-06-09T06:48:40.838Z,81.70
2018-06-09T06:51:09.451Z,80.70
2018-06-09T06:53:38.890Z,81.70
2018-06-09T06:56:07.473Z,80.80
2018-06-09T06:58:36.124Z,81.50
2018-06-09T07:01:04.899Z,81.70
2018-06-09T07:03:34.120Z,81.50
2018-06-09T07:06:03.719Z,82.10
2018-06-09T07:08:32.363Z,81.40
2018-06-09T07:11:00.892Z,80.20
2018-06-09T07:13:30.357Z,80.40
2018-06-09T07:15:58.962Z,80.70
2018-06-09T07:18:27.690Z,80.60
2018-06-09T07:20:57.164Z,80.30
2018-06-09T07:23:26.757Z,78.30
2018-06-09T07:25:55.372Z,78.90
2018-06-09T07:28:23.905Z,78.00
2018-06-09T07:30:52.471Z,79.20
2018-06-09T07:33:20.946Z,75.80
2018-06-09T07:35:49.552Z,75.50
2018-06-09T07:38:18.108Z,75.80
2018-06-09T07:40:48.053Z,77.10
2018-06-09T07:43:17.575Z,78.40
2018-06-09T07:45:46.411Z,76.40
2018-06-09T07:48:14.956Z,76.20
2018-06-09T07:50:43.807Z,75.90
2018-06-09T07:53:12.336Z,75.90
2018-06-09T07:55:40.889Z,75.50
2018-06-09T07:58:09.359Z,76.20
2018-06-09T08:00:37.912Z,76.40
2018-06-09T08:03:06.452Z,75.20
2018-06-09T08:05:36.040Z,75.00
2018-06-09T08:11:23.439Z,75.60
2018-06-09T08:16:20.616Z,74.50
2018-06-09T08:18:49.187Z,75.50
2018-06-09T08:21:17.796Z,72.40
2018-06-09T08:23:46.813Z,71.80
2018-06-09T08:26:15.337Z,72.90
2018-06-09T08:28:43.849Z,71.70
2018-06-09T08:31:13.398Z,72.20
2018-06-09T08:33:42.560Z,72.80
2018-06-09T08:36:11.644Z,72.00
2018-06-09T08:38:40.101Z,71.80
2018-06-09T08:41:08.759Z,72.00
2018-06-09T08:43:37.381Z,70.20
2018-06-09T08:46:06.728Z,69.20
2018-06-09T08:48:35.576Z,70.10
2018-06-09T08:51:04.833Z,68.40
2018-06-09T08:53:34.410Z,68.90
2018-06-09T08:56:04.208Z,70.50
2018-06-09T08:58:36.505Z,68.10
2018-06-09T09:01:06.858Z,69.10
2018-06-09T09:03:35.731Z,66.10
2018-06-09T09:06:04.710Z,67.50
2018-06-09T09:08:33.939Z,67.70
2018-06-09T09:11:02.675Z,69.50
2018-06-09T09:13:31.377Z,68.90
2018-06-09T09:16:00.018Z,68.40
2018-06-09T09:18:28.773Z,69.00
2018-06-09T09:20:57.627Z,66.20
2018-06-09T09:23:26.275Z,67.00
2018-06-09T09:25:54.932Z,67.00
2018-06-09T09:28:23.530Z,66.40
2018-06-09T09:30:52.060Z,68.10
2018-06-09T09:33:21.095Z,67.20
2018-06-09T09:35:49.632Z,67.40
2018-06-09T09:40:46.465Z,65.50
2018-06-09T09:43:15.197Z,65.30
2018-06-09T09:45:43.748Z,64.60
2018-06-09T09:48:12.377Z,67.00
2018-06-09T09:50:40.942Z,66.80
2018-06-09T09:53:09.509Z,66.50
2018-06-09T09:55:38.253Z,64.80
2018-06-09T09:58:07.057Z,65.10
2018-06-09T10:00:39.961Z,65.70
2018-06-09T10:03:08.825Z,66.10
2018-06-09T10:05:37.567Z,65.20
2018-06-09T10:08:06.553Z,64.20
2018-06-09T10:10:35.256Z,63.70
2018-06-09T10:13:04.749Z,63.20
2018-06-09T10:15:39.462Z,64.30
2018-06-09T10:18:16.436Z,64.20
2018-06-09T10:20:46.056Z,62.80
2018-06-09T10:25:43.995Z,63.20
2018-06-09T10:28:12.613Z,63.40
2018-06-09T10:30:41.590Z,62.30
2018-06-09T10:36:02.868Z,61.10
2018-06-09T10:38:35.770Z,61.00
2018-06-09T10:41:05.257Z,60.30
2018-06-09T10:43:39.785Z,60.90
2018-06-09T10:46:21.483Z,61.70
2018-06-09T10:48:50.697Z,61.50
2018-06-09T10:51:19.519Z,60.10
2018-06-09T10:53:48.105Z,60.10
2018-06-09T10:56:17.161Z,58.80
2018-06-09T10:58:45.738Z,61.60
2018-06-09T11:01:14.360Z,61.70
2018-06-09T11:03:42.917Z,59.70
2018-06-09T11:06:11.887Z,61.40
2018-06-09T11:08:40.592Z,60.20
2018-06-09T11:11:09.143Z,58.90
2018-06-09T11:13:37.679Z,59.50
2018-06-09T11:16:06.221Z,57.80
2018-06-09T11:18:34.793Z,59.10
2018-06-09T11:21:03.291Z,57.80
2018-06-09T11:23:31.816Z,56.70
2018-06-09T11:26:00.300Z,55.60
2018-06-09T11:28:29.254Z,55.60
2018-06-09T11:30:57.719Z,56.20
2018-06-09T11:33:26.560Z,56.50
2018-06-09T11:35:55.091Z,55.30
2018-06-09T11:38:25.037Z,55.80
2018-06-09T12:14:21.059Z,48.70
2018-06-09T12:17:02.630Z,39.70
2018-06-09T12:19:37.532Z,40.60
2018-06-09T12:26:11.097Z,38.80
2018-06-09T12:29:13.575Z,35.70
2018-06-09T12:58:22.534Z,44.50
2018-06-09T13:10:42.044Z,31.40
2018-06-09T13:16:27.034Z,32.20
2018-06-09T13:26:01.365Z,39.30
2018-06-09T13:37:50.344Z,30.10
2018-06-09T15:45:02.525Z,52.40
2018-06-09T15:47:31.199Z,52.10
2018-06-09T15:49:59.797Z,54.00
2018-06-09T15:52:28.292Z,54.90
2018-06-09T15:54:56.759Z,55.90
2018-06-09T15:57:27.478Z,57.00
2018-06-09T15:59:58.069Z,57.30
2018-06-09T16:02:27.191Z,59.10
2018-06-09T16:04:55.705Z,59.20
2018-06-09T16:07:24.946Z,59.80
2018-06-09T16:09:53.917Z,59.80
2018-06-09T16:12:23.470Z,59.90
2018-06-09T16:14:53.674Z,59.30
2018-06-09T16:17:23.870Z,58.60
2018-06-09T16:19:56.247Z,58.60
2018-06-09T16:49:53.678Z,54.50
2018-06-09T16:52:31.152Z,56.10
2018-06-09T16:55:07.497Z,55.60
2018-06-09T16:57:56.593Z,56.00
2018-06-09T17:00:35.563Z,56.40
2018-06-09T17:03:20.105Z,56.20
2018-06-09T17:09:02.922Z,57.50
2018-06-09T17:15:18.447Z,58.00
2018-06-09T17:24:39.359Z,54.30
2018-06-09T17:27:31.398Z,52.60
2018-06-09T17:30:31.218Z,54.30
2018-06-09T17:36:18.552Z,55.40
2018-06-09T17:38:59.607Z,55.90
2018-06-09T17:41:44.028Z,53.60
2018-06-09T17:44:14.672Z,53.80
2018-06-09T17:46:44.906Z,57.40
2018-06-09T17:49:14.103Z,59.70
2018-06-09T17:51:42.705Z,60.80
2018-06-09T17:54:11.697Z,62.60
2018-06-09T17:56:40.509Z,64.50
2018-06-09T17:59:10.614Z,66.40
2018-06-09T18:01:40.188Z,66.40
2018-06-09T18:04:09.275Z,67.40
2018-06-09T18:06:39.279Z,67.80
2018-06-09T18:09:10.340Z,68.30
2018-06-09T18:11:39.286Z,70.30
2018-06-09T18:14:10.141Z,75.30
2018-06-09T18:16:41.417Z,77.80
2018-06-09T18:19:10.383Z,78.70
2018-06-09T18:21:39.453Z,80.00
2018-06-09T18:24:08.644Z,82.00
2018-06-09T18:26:37.549Z,82.30
2018-06-09T18:29:06.296Z,82.70
2018-06-09T18:31:36.506Z,84.20
2018-06-09T18:34:18.274Z,85.40
2018-06-09T18:36:48.864Z,86.70
2018-06-09T18:39:19.664Z,88.70
2018-06-09T18:41:51.405Z,90.00
2018-06-09T18:44:21.526Z,90.30
2018-06-09T18:46:52.938Z,90.80
2018-06-09T18:49:22.963Z,90.30
2018-06-09T18:51:51.650Z,91.00
2018-06-09T18:54:20.398Z,92.10
2018-06-09T18:56:49.161Z,93.10
2018-06-09T18:59:24.977Z,94.40
2018-06-09T19:02:04.021Z,95.10
2018-06-09T19:04:36.764Z,95.60
2018-06-09T19:07:07.541Z,95.90
2018-06-09T19:09:36.825Z,96.10
2018-06-09T19:12:06.548Z,95.50
2018-06-09T19:14:35.726Z,95.30
2018-06-09T19:17:05.100Z,95.60
2018-06-09T19:19:34.380Z,96.10
2018-06-09T19:22:03.924Z,95.40
2018-06-09T19:24:32.891Z,95.70
2018-06-09T19:27:02.740Z,94.60
2018-06-09T19:29:43.784Z,93.90
2018-06-09T19:32:20.135Z,95.30
2018-06-09T19:34:56.480Z,94.70
2018-06-09T19:37:27.031Z,94.90
2018-06-09T19:40:12.059Z,94.30
2018-06-09T19:43:03.996Z,93.80
2018-06-09T19:47:24.682Z,94.10
2018-06-09T19:55:42.216Z,94.90
2018-06-09T19:58:13.749Z,96.40
2018-06-09T20:00:42.400Z,97.00
2018-06-09T20:05:44.526Z,96.40
2018-06-09T20:08:15.670Z,95.40
2018-06-09T20:10:44.539Z,96.70
2018-06-09T20:13:14.282Z,96.30
2018-06-09T20:15:47.387Z,96.20
2018-06-09T20:18:17.003Z,97.70
2018-06-09T20:20:45.749Z,96.20
2018-06-09T20:23:15.767Z,97.70
2018-06-09T20:25:45.299Z,98.00
2018-06-09T20:28:14.146Z,96.30
2018-06-09T20:30:46.898Z,96.80
2018-06-09T20:33:15.790Z,95.20
2018-06-09T20:35:44.345Z,95.70
2018-06-09T20:38:13.499Z,95.70
2018-06-09T20:40:42.565Z,95.90
2018-06-09T20:43:12.185Z,96.00
2018-06-09T20:45:43.683Z,96.10
2018-06-09T20:48:12.432Z,97.00
2018-06-09T20:50:41.045Z,97.40
2018-06-09T20:53:09.640Z,98.20
2018-06-09T20:55:38.424Z,96.00
2018-06-09T21:00:37.459Z,97.20
2018-06-09T21:03:08.882Z,96.90
2018-06-09T21:05:39.040Z,94.30
2018-06-09T21:08:08.304Z,94.70
2018-06-09T21:10:38.036Z,96.80
2018-06-09T21:13:09.306Z,94.30
2018-06-09T21:15:38.068Z,94.00
2018-06-09T21:18:06.564Z,96.30
2018-06-09T21:20:35.068Z,96.60
2018-06-09T21:23:03.895Z,97.10
2018-06-09T21:25:33.612Z,97.90
2018-06-09T21:30:15.825Z,97.70
2018-06-09T21:32:47.582Z,98.30
2018-06-09T21:35:33.358Z,99.80
2018-06-09T21:38:18.125Z,99.80
2018-06-09T21:40:47.953Z,99.80
2018-06-09T21:43:22.348Z,99.80
2018-06-09T21:45:52.684Z,99.80
2018-06-09T21:48:24.677Z,99.80
2018-06-09T21:51:31.797Z,99.80
2018-06-09T21:54:04.570Z,99.80
2018-06-09T21:57:09.942Z,99.60
2018-06-09T22:00:06.789Z,99.80
2018-06-09T22:02:48.224Z,99.80
2018-06-09T22:11:03.196Z,99.80
2018-06-09T22:13:32.658Z,99.80
2018-06-09T22:16:01.690Z,99.80
2018-06-09T22:18:31.131Z,99.80
2018-06-09T22:21:01.001Z,99.80
2018-06-09T22:23:30.358Z,99.80
2018-06-09T22:26:00.290Z,99.80
2018-06-09T22:28:31.448Z,99.80
2018-06-09T22:31:03.552Z,99.80
2018-06-09T22:36:09.984Z,99.80
2018-06-09T22:38:38.549Z,99.80
2018-06-09T22:41:09.009Z,99.80
2018-06-09T22:43:41.167Z,99.80
2018-06-09T22:46:10.611Z,99.80
2018-06-09T22:48:39.906Z,99.80
2018-06-09T22:51:13.912Z,99.80
2018-06-09T22:53:44.840Z,99.80
2018-06-09T22:56:16.923Z,99.80
2018-06-09T22:58:48.023Z,99.80
2018-06-09T23:01:17.053Z,99.80
2018-06-09T23:03:47.727Z,99.80
2018-06-09T23:06:17.067Z,99.80
2018-06-09T23:08:47.046Z,99.80
2018-06-09T23:11:17.671Z,99.80
2018-06-09T23:13:46.218Z,99.80
2018-06-09T23:16:14.762Z,99.80
2018-06-09T23:18:43.363Z,99.80
2018-06-09T23:21:12.491Z,99.80
2018-06-09T23:23:42.416Z,99.80
2018-06-09T23:26:11.073Z,99.80
2018-06-09T23:28:47.266Z,99.80
2018-06-09T23:31:18.995Z,99.80
2018-06-09T23:33:47.906Z,99.80
2018-06-09T23:36:16.612Z,99.80
2018-06-09T23:38:58.766Z,99.80
2018-06-09T23:44:30.387Z,99.80
2018-06-09T23:46:58.978Z,99.80
2018-06-09T23:49:27.624Z,99.80
2018-06-09T23:51:58.725Z,99.80
2018-06-09T23:54:32.618Z,99.80
2018-06-09T23:57:01.261Z,99.80
2018-06-09T23:59:32.429Z,99.80
